Time;durP1;ratioP1;P1;durP2;ratioP2;P2;SDS_P1;SDS_P2;PMS_P1;PMS_P2;Temp;Humidity;BMP_temperature;BMP_pressure;BME280_temperature;BME280_humidity;BME280_pressure;Samples;Min_cycle;Max_cycle;Signal;HPM_P1;HPM_P2
2022/03/18 00:02:23;;;;;;;33.60;15.27;;;6.20;99.90;;;;;;5042201;28;20435;-67
2022/03/18 00:04:50;;;;;;;36.67;15.97;;;6.20;99.90;;;;;;5023083;28;20511;-67
2022/03/18 00:07:16;;;;;;;37.17;16.47;;;6.20;99.90;;;;;;5030348;28;20440;-67
2022/03/18 00:09:42;;;;;;;39.07;17.37;;;6.30;99.90;;;;;;5029434;28;20837;-64
2022/03/18 00:12:11;;;;;;;38.63;16.50;;;6.20;99.90;;;;;;5027662;28;20437;-67
2022/03/18 00:14:41;;;;;;;35.47;15.43;;;6.20;99.90;;;;;;5032356;28;20190;-67
2022/03/18 00:17:11;;;;;;;38.70;16.47;;;6.20;99.90;;;;;;5037053;28;20443;-63
2022/03/18 00:19:38;;;;;;;30.63;14.47;;;6.20;99.90;;;;;;5011444;28;20503;-65
2022/03/18 00:22:05;;;;;;;40.07;17.67;;;6.20;99.90;;;;;;5036716;28;20427;-65
2022/03/18 00:24:32;;;;;;;38.40;16.47;;;6.20;99.90;;;;;;5044526;28;20483;-64
2022/03/18 00:27:04;;;;;;;34.93;16.47;;;6.10;99.90;;;;;;5040697;28;20433;-65
2022/03/18 00:29:34;;;;;;;33.67;15.27;;;6.10;99.90;;;;;;5035694;28;20456;-65
2022/03/18 00:32:00;;;;;;;37.03;15.90;;;6.10;99.90;;;;;;5040847;28;20435;-64
2022/03/18 00:34:26;;;;;;;32.00;15.97;;;6.10;99.90;;;;;;5039272;28;20424;-65
2022/03/18 00:36:53;;;;;;;38.90;16.30;;;6.20;99.90;;;;;;5039434;28;20451;-66
2022/03/18 00:39:18;;;;;;;36.90;17.17;;;6.10;99.90;;;;;;5034525;28;21018;-63
2022/03/18 00:41:44;;;;;;;44.30;17.97;;;6.10;99.90;;;;;;5032231;28;20435;-64
2022/03/18 00:44:10;;;;;;;38.33;16.50;;;6.10;99.90;;;;;;5036297;28;20209;-64
2022/03/18 00:46:36;;;;;;;34.83;17.20;;;6.10;99.90;;;;;;5040638;28;20209;-63
2022/03/18 00:52:04;;;;;;;41.17;17.03;;;6.10;99.90;;;;;;5041724;28;20200;-64
2022/03/18 00:54:34;;;;;;;43.80;18.57;;;6.10;99.90;;;;;;5037490;28;20457;-64
2022/03/18 00:56:59;;;;;;;42.70;18.43;;;6.10;99.90;;;;;;5040361;28;20427;-63
2022/03/18 00:59:25;;;;;;;51.63;21.60;;;6.10;99.90;;;;;;5042272;28;20514;-64
2022/03/18 01:01:52;;;;;;;38.90;17.57;;;6.10;99.90;;;;;;5041897;28;20204;-64
2022/03/18 01:04:22;;;;;;;34.70;16.00;;;6.10;99.90;;;;;;5042403;28;20744;-64
2022/03/18 01:06:54;;;;;;;35.97;18.07;;;6.00;99.90;;;;;;5043789;28;21208;-63
2022/03/18 01:09:21;;;;;;;43.57;17.00;;;6.10;99.90;;;;;;5033154;28;21055;-65
2022/03/18 01:11:49;;;;;;;46.27;18.73;;;6.10;99.90;;;;;;5041365;28;20531;-64
2022/03/18 01:14:16;;;;;;;39.13;16.57;;;6.10;99.90;;;;;;5040735;28;20432;-63
2022/03/18 01:16:41;;;;;;;42.67;17.77;;;6.10;99.90;;;;;;5036435;28;20417;-63
2022/03/18 01:19:08;;;;;;;40.63;17.87;;;6.10;99.90;;;;;;5035896;28;21142;-64
2022/03/18 01:21:33;;;;;;;39.83;18.30;;;6.10;99.90;;;;;;5043076;28;20292;-64
2022/03/18 01:23:59;;;;;;;36.40;17.27;;;6.00;99.90;;;;;;5037526;28;20575;-63
2022/03/18 01:26:25;;;;;;;31.30;14.83;;;6.00;99.90;;;;;;5042912;28;20189;-65
2022/03/18 01:28:52;;;;;;;41.13;17.10;;;6.00;99.90;;;;;;5036859;28;20444;-63
2022/03/18 01:31:18;;;;;;;41.10;17.20;;;6.00;99.90;;;;;;5039582;28;20221;-64
2022/03/18 01:33:44;;;;;;;37.90;18.63;;;6.00;99.90;;;;;;5045776;28;20455;-66
2022/03/18 01:36:11;;;;;;;32.93;16.50;;;6.00;99.90;;;;;;5042885;28;20455;-61
2022/03/18 01:38:37;;;;;;;35.33;17.63;;;6.00;99.90;;;;;;5037688;28;20271;-66
2022/03/18 01:41:03;;;;;;;33.10;15.20;;;6.00;99.90;;;;;;5043246;28;20420;-66
2022/03/18 01:43:35;;;;;;;42.53;18.40;;;6.00;99.90;;;;;;5044993;28;20517;-62
2022/03/18 01:46:01;;;;;;;33.27;15.60;;;6.00;99.90;;;;;;5043649;28;20190;-63
2022/03/18 01:48:26;;;;;;;46.57;17.90;;;6.00;99.90;;;;;;5036875;28;20487;-62
2022/03/18 01:50:52;;;;;;;34.23;15.80;;;6.00;99.90;;;;;;5030243;28;20848;-64
2022/03/18 01:53:18;;;;;;;34.57;15.93;;;6.00;99.90;;;;;;5038452;28;20261;-67
2022/03/18 01:55:44;;;;;;;32.63;15.13;;;6.00;99.90;;;;;;5038744;28;20201;-66
2022/03/18 01:58:09;;;;;;;39.47;15.47;;;5.90;99.90;;;;;;5038311;28;20268;-66
2022/03/18 02:00:35;;;;;;;30.63;15.17;;;6.00;99.90;;;;;;5036115;28;20229;-66
2022/03/18 02:03:00;;;;;;;35.73;14.80;;;5.90;99.90;;;;;;5036976;28;20209;-66
2022/03/18 02:05:26;;;;;;;38.10;15.50;;;5.90;99.90;;;;;;5039245;28;20181;-65
2022/03/18 02:07:52;;;;;;;35.23;16.53;;;5.90;99.90;;;;;;5038001;28;20217;-66
2022/03/18 02:10:17;;;;;;;43.23;15.60;;;5.90;99.90;;;;;;5036005;28;20206;-66
2022/03/18 02:12:43;;;;;;;43.17;16.00;;;5.90;99.90;;;;;;5039424;28;20245;-66
2022/03/18 02:15:09;;;;;;;30.23;13.73;;;5.90;99.90;;;;;;5044963;28;20975;-66
2022/03/18 02:17:37;;;;;;;35.77;16.23;;;5.90;99.90;;;;;;5043644;28;20230;-65
2022/03/18 02:20:03;;;;;;;38.47;16.03;;;5.90;99.90;;;;;;5036993;28;20664;-65
2022/03/18 02:22:40;;;;;;;36.70;14.80;;;5.90;99.90;;;;;;5038024;28;21012;-65
2022/03/18 02:25:12;;;;;;;38.67;14.57;;;5.90;99.90;;;;;;5042218;28;20421;-66
2022/03/18 02:27:39;;;;;;;32.90;13.60;;;5.90;99.90;;;;;;5042314;28;20428;-65
2022/03/18 02:30:06;;;;;;;32.90;15.13;;;5.90;99.90;;;;;;5032190;28;20461;-65
2022/03/18 02:32:32;;;;;;;33.67;15.17;;;5.90;99.90;;;;;;5030845;28;20988;-66
2022/03/18 02:34:58;;;;;;;31.83;14.03;;;5.90;99.90;;;;;;5021086;28;21240;-66
2022/03/18 02:37:24;;;;;;;41.53;17.03;;;5.90;99.90;;;;;;5035705;28;20428;-65
2022/03/18 02:39:50;;;;;;;27.83;13.20;;;5.90;99.90;;;;;;5032904;28;20221;-66
2022/03/18 02:42:15;;;;;;;38.43;15.10;;;5.90;99.90;;;;;;5029369;28;20274;-66
2022/03/18 02:44:41;;;;;;;31.70;13.67;;;5.80;99.90;;;;;;5038174;28;20309;-64
2022/03/18 02:47:07;;;;;;;32.73;16.33;;;5.90;99.90;;;;;;5034207;28;20209;-66
2022/03/18 02:49:32;;;;;;;30.60;15.80;;;5.80;99.90;;;;;;5032188;28;20748;-65
2022/03/18 02:51:58;;;;;;;29.20;14.20;;;5.80;99.90;;;;;;5033525;28;20193;-66
2022/03/18 02:54:24;;;;;;;29.07;14.37;;;5.80;99.90;;;;;;5045677;28;20335;-66
2022/03/18 02:56:50;;;;;;;37.60;15.97;;;5.80;99.90;;;;;;5038741;28;20205;-66
2022/03/18 02:59:15;;;;;;;30.17;14.80;;;5.80;99.90;;;;;;5033705;28;20447;-66
2022/03/18 03:01:41;;;;;;;33.93;14.00;;;5.80;99.90;;;;;;5038080;28;20193;-66
2022/03/18 03:04:07;;;;;;;28.73;13.50;;;5.80;99.90;;;;;;5035266;28;20840;-66
2022/03/18 03:09:17;;;;;;;37.63;14.57;;;5.80;99.90;;;;;;5038641;28;21095;-66
2022/03/18 03:11:44;;;;;;;29.00;14.67;;;5.80;99.90;;;;;;5044055;28;20420;-66
2022/03/18 03:14:10;;;;;;;29.13;13.70;;;5.80;99.90;;;;;;5038714;28;20360;-65
2022/03/18 03:16:36;;;;;;;27.00;13.00;;;5.80;99.90;;;;;;5039478;28;20629;-65
2022/03/18 03:19:02;;;;;;;30.33;13.40;;;5.80;99.90;;;;;;5031398;28;20210;-67
2022/03/18 03:21:28;;;;;;;36.57;13.70;;;5.80;99.90;;;;;;5039608;28;20182;-65
2022/03/18 03:23:53;;;;;;;34.30;13.67;;;5.70;99.90;;;;;;5040299;28;21064;-66
2022/03/18 03:26:19;;;;;;;32.40;15.40;;;5.70;99.90;;;;;;5038862;28;20177;-65
2022/03/18 03:28:45;;;;;;;34.67;15.20;;;5.80;99.90;;;;;;5037569;28;20194;-66
2022/03/18 03:31:11;;;;;;;29.47;14.03;;;5.80;99.90;;;;;;5031227;28;20197;-65
2022/03/18 03:33:37;;;;;;;26.53;12.13;;;5.70;99.90;;;;;;5038405;28;20448;-65
2022/03/18 03:36:03;;;;;;;28.90;14.03;;;5.70;99.90;;;;;;5030627;28;20475;-66
2022/03/18 03:38:29;;;;;;;22.90;12.17;;;5.70;99.90;;;;;;5032382;28;20203;-65
2022/03/18 03:40:55;;;;;;;34.63;14.00;;;5.70;99.90;;;;;;5041254;28;20878;-66
2022/03/18 03:43:20;;;;;;;24.17;13.43;;;5.80;99.90;;;;;;5044012;28;20918;-66
2022/03/18 03:45:46;;;;;;;29.40;12.93;;;5.70;99.90;;;;;;5040875;28;20661;-65
2022/03/18 03:48:14;;;;;;;26.43;12.93;;;5.70;99.90;;;;;;5035698;28;20213;-64
2022/03/18 03:50:40;;;;;;;28.13;13.13;;;5.70;99.90;;;;;;5039219;28;20678;-66
2022/03/18 03:53:07;;;;;;;31.57;13.93;;;5.70;99.90;;;;;;5042357;28;20427;-66
2022/03/18 03:55:34;;;;;;;33.57;12.37;;;5.70;99.90;;;;;;5039372;28;20217;-64
2022/03/18 03:58:00;;;;;;;27.50;11.80;;;5.70;99.90;;;;;;5031872;28;20440;-66
2022/03/18 04:00:25;;;;;;;27.43;13.37;;;5.70;99.90;;;;;;5038612;28;20990;-63
2022/03/18 04:02:51;;;;;;;29.67;10.60;;;5.60;99.90;;;;;;5033329;28;20221;-67
2022/03/18 04:05:17;;;;;;;24.83;11.00;;;5.60;99.90;;;;;;5037796;28;20555;-65
2022/03/18 04:07:44;;;;;;;25.23;12.30;;;5.60;99.90;;;;;;5026556;28;20182;-65
2022/03/18 04:10:11;;;;;;;26.83;11.03;;;5.60;99.90;;;;;;5043625;28;20205;-65
2022/03/18 04:12:37;;;;;;;28.70;13.20;;;5.60;99.90;;;;;;5036407;28;20786;-65
2022/03/18 04:15:04;;;;;;;25.73;11.50;;;5.60;99.90;;;;;;5043972;28;20412;-66
2022/03/18 04:17:46;;;;;;;38.50;13.23;;;5.60;99.90;;;;;;5037555;28;20521;-64
2022/03/18 04:20:17;;;;;;;24.30;11.70;;;5.60;99.90;;;;;;5028261;28;20510;-66
2022/03/18 04:22:43;;;;;;;22.83;12.40;;;5.60;99.90;;;;;;5041944;28;20427;-66
2022/03/18 04:25:10;;;;;;;28.73;14.10;;;5.60;99.90;;;;;;5045628;28;20416;-64
2022/03/18 04:27:37;;;;;;;27.73;13.40;;;5.60;99.90;;;;;;5041331;28;20486;-65
2022/03/18 04:30:05;;;;;;;26.00;11.73;;;5.50;99.90;;;;;;5037635;28;20465;-66
2022/03/18 04:32:30;;;;;;;29.80;12.73;;;5.60;99.90;;;;;;5039897;28;20507;-66
2022/03/18 04:34:56;;;;;;;19.60;10.97;;;5.60;99.90;;;;;;5040800;28;20936;-65
2022/03/18 04:37:22;;;;;;;27.60;12.83;;;5.60;99.90;;;;;;5031412;28;20190;-66
2022/03/18 04:39:47;;;;;;;24.90;12.77;;;5.60;99.90;;;;;;5038903;28;20317;-65
2022/03/18 04:42:13;;;;;;;25.23;11.53;;;5.60;99.90;;;;;;5041939;28;20711;-65
2022/03/18 04:44:39;;;;;;;22.67;10.90;;;5.60;99.90;;;;;;5036148;28;20212;-66
2022/03/18 04:47:05;;;;;;;25.70;12.00;;;5.50;99.90;;;;;;5043023;28;20235;-66
2022/03/18 04:49:30;;;;;;;23.00;11.00;;;5.60;99.90;;;;;;5029342;28;20221;-65
2022/03/18 04:51:56;;;;;;;27.80;11.50;;;5.60;99.90;;;;;;5047235;28;20416;-66
2022/03/18 04:54:22;;;;;;;35.93;12.20;;;5.60;99.90;;;;;;5047393;28;20734;-63
2022/03/18 04:59:32;;;;;;;22.60;11.20;;;5.60;99.90;;;;;;5037849;28;20268;-65
2022/03/18 05:01:57;;;;;;;24.27;13.27;;;5.60;99.90;;;;;;5042743;28;20815;-66
2022/03/18 05:04:23;;;;;;;31.07;12.27;;;5.60;99.90;;;;;;5040295;28;20301;-67
2022/03/18 05:06:49;;;;;;;30.37;13.80;;;5.60;99.90;;;;;;5035794;28;20186;-66
2022/03/18 05:09:15;;;;;;;24.60;12.83;;;5.50;99.90;;;;;;5032903;28;20208;-66
2022/03/18 05:11:44;;;;;;;28.30;11.87;;;5.60;99.90;;;;;;5032480;28;20416;-65
2022/03/18 05:14:09;;;;;;;28.50;12.50;;;5.50;99.90;;;;;;5033006;28;20432;-66
2022/03/18 05:16:35;;;;;;;34.87;12.57;;;5.50;99.90;;;;;;5036948;28;20467;-64
2022/03/18 05:19:16;;;;;;;23.33;11.17;;;5.60;99.90;;;;;;5041172;28;20209;-63
2022/03/18 05:21:42;;;;;;;23.73;11.23;;;5.60;99.90;;;;;;5042725;28;20186;-67
2022/03/18 05:24:09;;;;;;;24.67;11.90;;;5.50;99.90;;;;;;5044983;28;20472;-67
2022/03/18 05:26:36;;;;;;;24.03;12.20;;;5.60;99.90;;;;;;5039407;28;20261;-66
2022/03/18 05:29:03;;;;;;;32.87;12.37;;;5.50;99.90;;;;;;5040242;28;20476;-63
2022/03/18 05:31:31;;;;;;;31.03;13.30;;;5.50;99.90;;;;;;5035463;28;20927;-68
2022/03/18 05:33:57;;;;;;;26.10;12.20;;;5.50;99.90;;;;;;5025913;28;20432;-67
2022/03/18 05:36:23;;;;;;;28.50;12.17;;;5.50;99.90;;;;;;5033653;28;20440;-67
2022/03/18 05:38:49;;;;;;;27.23;12.57;;;5.50;99.90;;;;;;5037211;28;20444;-67
2022/03/18 05:41:14;;;;;;;34.93;13.00;;;5.50;99.90;;;;;;5036584;28;20191;-67
2022/03/18 05:43:40;;;;;;;32.10;12.70;;;5.50;99.90;;;;;;5037294;28;20202;-67
2022/03/18 05:46:07;;;;;;;33.50;11.67;;;5.50;99.90;;;;;;5046172;28;20186;-67
2022/03/18 05:48:32;;;;;;;27.90;12.60;;;5.50;99.90;;;;;;5036795;28;20181;-68
2022/03/18 05:51:00;;;;;;;33.63;14.53;;;5.60;99.90;;;;;;5041670;28;20432;-67
2022/03/18 05:53:26;;;;;;;31.97;13.27;;;5.50;99.90;;;;;;5046725;28;20201;-67
2022/03/18 05:58:36;;;;;;;32.77;13.67;;;5.50;99.90;;;;;;5033545;28;20439;-64
2022/03/18 06:01:03;;;;;;;32.93;14.10;;;5.50;99.90;;;;;;5038752;28;20448;-64
2022/03/18 06:03:29;;;;;;;44.87;15.40;;;5.60;99.90;;;;;;5039836;28;20334;-64
2022/03/18 06:05:54;;;;;;;34.63;14.80;;;5.60;99.90;;;;;;5041841;28;20428;-64
2022/03/18 06:13:48;;;;;;;36.47;13.53;;;5.60;99.90;;;;;;5035387;28;20619;-64
2022/03/18 06:16:14;;;;;;;30.67;13.90;;;5.60;99.90;;;;;;5033968;28;20995;-67
2022/03/18 06:18:39;;;;;;;36.30;13.57;;;5.60;99.90;;;;;;5040588;28;20744;-65
2022/03/18 06:21:06;;;;;;;35.40;13.47;;;5.60;99.90;;;;;;5038784;28;20212;-67
2022/03/18 06:23:33;;;;;;;29.63;12.87;;;5.60;99.90;;;;;;5044862;28;20963;-67
2022/03/18 06:25:59;;;;;;;31.87;13.40;;;5.60;99.90;;;;;;5044460;28;20424;-66
2022/03/18 06:28:24;;;;;;;29.60;13.60;;;5.60;99.90;;;;;;5033015;28;20443;-66
2022/03/18 06:30:51;;;;;;;33.87;13.90;;;5.60;99.90;;;;;;5037130;28;20435;-64
2022/03/18 06:33:16;;;;;;;35.70;16.23;;;5.60;99.90;;;;;;5024037;28;20228;-64
2022/03/18 06:35:42;;;;;;;30.70;14.10;;;5.70;99.90;;;;;;5036856;28;20452;-66
2022/03/18 06:38:08;;;;;;;34.60;14.80;;;5.70;99.90;;;;;;5035568;28;20199;-65
2022/03/18 06:40:34;;;;;;;29.97;14.67;;;5.70;99.90;;;;;;5035136;28;20240;-66
2022/03/18 06:43:00;;;;;;;41.07;14.37;;;5.70;99.90;;;;;;5038741;28;20941;-66
2022/03/18 06:45:26;;;;;;;35.40;13.87;;;5.60;99.90;;;;;;5036901;28;20236;-66
2022/03/18 06:47:52;;;;;;;35.47;14.73;;;5.70;99.90;;;;;;5037594;28;20228;-67
2022/03/18 06:50:18;;;;;;;35.47;14.40;;;5.80;99.90;;;;;;5028016;28;20460;-67
2022/03/18 06:52:44;;;;;;;36.20;15.60;;;5.80;99.90;;;;;;5031070;28;20428;-66
2022/03/18 06:55:09;;;;;;;37.47;15.67;;;5.80;99.90;;;;;;5034865;28;20197;-65
2022/03/18 06:57:35;;;;;;;34.47;15.47;;;5.80;99.90;;;;;;5037027;28;20741;-65
2022/03/18 07:00:02;;;;;;;40.77;16.10;;;5.80;99.90;;;;;;5034788;28;20260;-64
2022/03/18 07:02:28;;;;;;;32.87;13.73;;;5.80;99.90;;;;;;5042476;28;20196;-65
2022/03/18 07:04:55;;;;;;;41.40;16.23;;;5.80;99.90;;;;;;5037974;28;20464;-66
2022/03/18 07:07:20;;;;;;;32.63;15.30;;;5.90;99.90;;;;;;5021182;28;20191;-65
2022/03/18 07:09:46;;;;;;;35.67;15.20;;;6.00;99.90;;;;;;5035260;28;20501;-66
2022/03/18 07:12:12;;;;;;;38.80;16.20;;;5.90;99.90;;;;;;5035331;28;20178;-66
2022/03/18 07:14:37;;;;;;;36.27;15.20;;;6.00;99.90;;;;;;5031118;28;20186;-66
2022/03/18 07:19:48;;;;;;;32.93;16.30;;;6.00;99.90;;;;;;5032755;28;20247;-66
2022/03/18 07:22:13;;;;;;;39.73;14.17;;;6.10;99.90;;;;;;5044232;28;20451;-64
2022/03/18 07:24:39;;;;;;;39.13;15.77;;;6.10;99.90;;;;;;5037289;28;20218;-66
2022/03/18 07:27:04;;;;;;;35.63;16.00;;;6.10;99.90;;;;;;5037956;28;20186;-64
2022/03/18 07:29:30;;;;;;;36.00;14.13;;;6.10;99.90;;;;;;5033372;28;20353;-65
2022/03/18 07:31:56;;;;;;;27.27;14.73;;;6.10;99.90;;;;;;5036353;28;20193;-65
2022/03/18 07:34:22;;;;;;;42.37;14.13;;;6.10;99.90;;;;;;5040732;28;20838;-66
2022/03/18 07:36:48;;;;;;;39.40;15.83;;;6.10;99.90;;;;;;5034638;28;20932;-68
2022/03/18 07:39:14;;;;;;;36.37;16.17;;;6.20;99.90;;;;;;5036455;28;20528;-66
2022/03/18 07:41:40;;;;;;;34.23;15.70;;;6.20;99.90;;;;;;5035544;28;21137;-66
2022/03/18 07:44:06;;;;;;;38.87;17.87;;;6.20;99.90;;;;;;5038339;28;20468;-65
2022/03/18 07:46:32;;;;;;;36.10;17.13;;;6.30;99.90;;;;;;5017134;28;20273;-66
2022/03/18 07:48:57;;;;;;;29.07;14.50;;;6.40;99.90;;;;;;5033680;28;20243;-68
2022/03/18 07:51:23;;;;;;;28.93;13.83;;;6.40;99.90;;;;;;5036142;28;20190;-68
2022/03/18 07:53:49;;;;;;;32.80;16.30;;;6.50;99.90;;;;;;5037240;28;20359;-64
2022/03/18 07:56:15;;;;;;;30.00;13.60;;;6.60;99.90;;;;;;5038717;28;21245;-66
2022/03/18 07:58:41;;;;;;;28.30;13.40;;;6.70;99.90;;;;;;5023514;28;20747;-65
2022/03/18 08:01:06;;;;;;;38.17;15.90;;;6.80;99.90;;;;;;5034029;28;20209;-66
2022/03/18 08:03:32;;;;;;;32.60;16.23;;;6.90;99.90;;;;;;5029749;28;20287;-66
2022/03/18 08:05:58;;;;;;;31.23;15.87;;;7.00;99.90;;;;;;5028322;28;20226;-65
2022/03/18 08:08:23;;;;;;;33.50;14.60;;;7.00;99.90;;;;;;5027046;28;20316;-67
2022/03/18 08:10:51;;;;;;;35.47;15.87;;;7.00;99.90;;;;;;5008740;28;20229;-65
2022/03/18 08:13:17;;;;;;;35.57;16.67;;;7.10;99.90;;;;;;5029839;28;20179;-66
2022/03/18 08:15:44;;;;;;;30.53;14.13;;;7.10;99.90;;;;;;5031818;28;20452;-67
2022/03/18 08:18:10;;;;;;;41.43;16.83;;;7.00;99.90;;;;;;5029913;28;20568;-65
2022/03/18 08:20:40;;;;;;;43.17;15.63;;;7.10;99.90;;;;;;5029477;28;20448;-68
2022/03/18 08:23:14;;;;;;;32.70;15.00;;;7.00;99.90;;;;;;5027969;28;20461;-66
2022/03/18 08:25:40;;;;;;;43.97;16.47;;;7.00;99.90;;;;;;5030531;28;20993;-67
2022/03/18 08:28:07;;;;;;;33.97;16.63;;;6.90;99.90;;;;;;5031436;28;20427;-66
2022/03/18 08:30:33;;;;;;;35.00;16.97;;;7.00;99.90;;;;;;5032298;28;20456;-66
2022/03/18 08:32:59;;;;;;;38.43;18.63;;;6.90;99.90;;;;;;5030775;28;20452;-66
2022/03/18 08:35:25;;;;;;;39.90;16.00;;;6.90;99.90;;;;;;5019148;28;20471;-65
2022/03/18 08:37:57;;;;;;;35.20;15.80;;;6.90;99.90;;;;;;5034635;28;20440;-68
2022/03/18 08:40:34;;;;;;;37.60;16.70;;;6.90;99.90;;;;;;5028387;28;20881;-68
2022/03/18 08:43:02;;;;;;;43.93;17.47;;;6.90;99.90;;;;;;5035962;28;20442;-67
2022/03/18 08:45:29;;;;;;;41.60;16.10;;;7.00;99.90;;;;;;5035931;28;20496;-67
2022/03/18 08:47:55;;;;;;;47.47;17.17;;;7.00;99.90;;;;;;5020419;28;20853;-67
2022/03/18 08:50:22;;;;;;;34.40;15.93;;;7.10;99.90;;;;;;5032596;28;20448;-68
2022/03/18 08:52:49;;;;;;;38.80;18.53;;;7.10;99.90;;;;;;5034163;28;20210;-67
2022/03/18 08:55:16;;;;;;;39.00;18.07;;;7.30;99.90;;;;;;5026782;28;20793;-69
2022/03/18 08:57:42;;;;;;;39.43;16.40;;;7.40;99.90;;;;;;5027738;28;20428;-68
2022/03/18 09:00:14;;;;;;;37.77;16.53;;;7.40;99.90;;;;;;5028338;28;20507;-67
2022/03/18 09:02:41;;;;;;;41.93;17.53;;;7.30;99.90;;;;;;5016931;28;20427;-65
2022/03/18 09:05:08;;;;;;;31.40;14.87;;;7.30;99.90;;;;;;5038799;28;20564;-66
2022/03/18 09:07:34;;;;;;;41.83;18.87;;;7.40;99.90;;;;;;5037359;28;20421;-65
2022/03/18 09:10:00;;;;;;;42.97;16.27;;;7.40;99.90;;;;;;5040366;28;20447;-64
2022/03/18 09:12:27;;;;;;;44.40;18.53;;;7.50;99.90;;;;;;5030987;28;20424;-64
2022/03/18 09:14:53;;;;;;;37.43;17.50;;;7.50;99.90;;;;;;5034400;28;20440;-67
2022/03/18 09:17:19;;;;;;;37.90;17.37;;;7.60;99.90;;;;;;5042240;28;20417;-66
2022/03/18 09:19:45;;;;;;;34.60;16.73;;;7.60;99.90;;;;;;5020177;28;21352;-66
2022/03/18 09:22:11;;;;;;;48.43;18.50;;;7.70;99.90;;;;;;5015636;28;20214;-66
2022/03/18 09:24:38;;;;;;;38.90;16.93;;;7.70;99.90;;;;;;5017637;28;20305;-65
2022/03/18 09:27:04;;;;;;;50.70;18.00;;;7.70;99.90;;;;;;5020267;28;20182;-64
2022/03/18 09:29:30;;;;;;;40.07;17.07;;;7.70;99.90;;;;;;5007620;28;20441;-65
2022/03/18 09:31:56;;;;;;;36.73;16.50;;;7.80;99.90;;;;;;5032001;28;20999;-66
2022/03/18 09:34:24;;;;;;;31.07;14.87;;;7.80;99.90;;;;;;5026976;28;20539;-66
2022/03/18 09:36:55;;;;;;;32.63;15.10;;;7.90;99.90;;;;;;5033088;28;20428;-64
2022/03/18 09:39:22;;;;;;;41.53;16.90;;;7.90;99.90;;;;;;5028090;28;20602;-66
2022/03/18 09:41:48;;;;;;;36.10;16.50;;;8.00;99.90;;;;;;5030205;28;20815;-66
2022/03/18 09:44:14;;;;;;;32.53;15.60;;;8.10;99.90;;;;;;5030907;28;20460;-66
2022/03/18 09:46:41;;;;;;;39.27;15.30;;;8.20;99.90;;;;;;5030009;28;20444;-66
2022/03/18 09:49:11;;;;;;;35.27;14.43;;;8.20;99.90;;;;;;5029646;28;20202;-69
2022/03/18 09:51:42;;;;;;;28.50;14.30;;;8.30;99.90;;;;;;5025354;28;20421;-65
2022/03/18 09:54:09;;;;;;;37.73;16.20;;;8.20;99.90;;;;;;5028552;28;20571;-67
2022/03/18 09:56:37;;;;;;;34.73;13.87;;;8.30;99.90;;;;;;5029206;28;20555;-66
2022/03/18 09:59:02;;;;;;;34.13;15.57;;;8.30;99.90;;;;;;5034627;28;20875;-65
2022/03/18 10:01:28;;;;;;;34.47;15.37;;;8.40;99.90;;;;;;5028717;28;20490;-66
2022/03/18 10:03:54;;;;;;;44.87;14.07;;;8.60;99.90;;;;;;5030318;28;20296;-67
2022/03/18 10:06:27;;;;;;;32.23;14.17;;;8.60;99.90;;;;;;5029646;28;20282;-67
2022/03/18 10:08:54;;;;;;;31.57;13.87;;;8.60;99.90;;;;;;5029168;28;20218;-67
2022/03/18 10:11:21;;;;;;;24.83;12.67;;;8.50;99.90;;;;;;5031751;28;20491;-65
2022/03/18 10:13:52;;;;;;;26.80;13.10;;;8.50;99.90;;;;;;5031575;28;20507;-68
2022/03/18 10:16:36;;;;;;;38.13;14.90;;;8.60;99.90;;;;;;5020531;28;20479;-66
2022/03/18 10:19:14;;;;;;;27.07;12.97;;;8.70;99.90;;;;;;5030539;28;20445;-65
2022/03/18 10:21:53;;;;;;;29.53;12.73;;;8.70;99.90;;;;;;5033535;28;20434;-66
2022/03/18 10:24:23;;;;;;;25.30;13.50;;;8.80;99.90;;;;;;5025674;28;20917;-66
2022/03/18 10:26:51;;;;;;;34.83;12.53;;;9.00;99.90;;;;;;5034745;28;20410;-66
2022/03/18 10:29:18;;;;;;;37.80;14.30;;;9.00;99.90;;;;;;5030849;28;20447;-67
2022/03/18 10:31:59;;;;;;;35.47;13.90;;;9.10;99.90;;;;;;5030579;28;20576;-66
2022/03/18 10:37:21;;;;;;;33.03;12.23;;;9.00;99.90;;;;;;5037520;28;20444;-65
2022/03/18 10:39:49;;;;;;;34.67;14.37;;;9.10;99.90;;;;;;5036496;28;20460;-64
2022/03/18 10:42:18;;;;;;;31.57;12.13;;;9.10;99.90;;;;;;5029632;28;20440;-65
2022/03/18 10:44:58;;;;;;;33.03;12.83;;;9.10;99.90;;;;;;5030068;28;20474;-65
2022/03/18 10:47:26;;;;;;;27.00;13.20;;;9.20;99.90;;;;;;5025642;28;20510;-66
2022/03/18 10:50:10;;;;;;;38.80;12.93;;;9.20;99.90;;;;;;5024137;28;20453;-68
2022/03/18 10:52:48;;;;;;;25.07;11.53;;;9.20;99.90;;;;;;5030577;28;20436;-67
2022/03/18 10:55:20;;;;;;;35.60;13.33;;;9.30;99.90;;;;;;5028662;28;20445;-66
2022/03/18 10:57:50;;;;;;;32.97;12.90;;;9.50;99.90;;;;;;5024784;28;20520;-66
2022/03/18 11:00:16;;;;;;;28.80;11.87;;;9.50;99.90;;;;;;5009739;28;20473;-65
2022/03/18 11:02:42;;;;;;;38.90;13.83;;;9.50;99.90;;;;;;5041550;28;20432;-67
2022/03/18 11:05:12;;;;;;;30.10;13.70;;;9.50;99.90;;;;;;5042858;28;20563;-66
2022/03/18 11:07:41;;;;;;;33.47;13.23;;;9.50;99.90;;;;;;5004608;28;20432;-67
2022/03/18 11:12:59;;;;;;;25.30;11.33;;;9.70;99.90;;;;;;5022137;28;20446;-65
2022/03/18 11:15:25;;;;;;;29.83;12.47;;;9.90;99.70;;;;;;5006187;28;20812;-66
2022/03/18 11:17:52;;;;;;;31.20;13.50;;;10.30;98.90;;;;;;5026418;28;20436;-68
2022/03/18 11:20:21;;;;;;;26.40;12.00;;;10.40;98.30;;;;;;5027152;28;20445;-65
2022/03/18 11:22:49;;;;;;;24.50;12.93;;;10.50;97.30;;;;;;5023574;28;20417;-66
2022/03/18 11:25:15;;;;;;;23.90;11.80;;;10.40;97.40;;;;;;5025275;28;20496;-66
2022/03/18 11:27:44;;;;;;;26.30;11.80;;;10.40;97.90;;;;;;5028284;28;20924;-67
2022/03/18 11:30:31;;;;;;;31.83;13.83;;;10.50;97.50;;;;;;5035576;28;20468;-63
2022/03/18 11:33:06;;;;;;;31.87;12.80;;;10.50;96.80;;;;;;5033263;28;20413;-66
2022/03/18 11:35:50;;;;;;;27.23;12.17;;;10.60;97.10;;;;;;5035183;28;20526;-64
2022/03/18 11:38:15;;;;;;;23.13;11.33;;;10.60;97.20;;;;;;5036200;28;20475;-65
2022/03/18 11:40:58;;;;;;;28.20;11.07;;;10.60;97.20;;;;;;5037443;28;20436;-67
2022/03/18 11:43:36;;;;;;;27.60;11.30;;;10.60;96.70;;;;;;5036276;28;20220;-65
2022/03/18 11:46:14;;;;;;;28.40;12.70;;;10.50;96.70;;;;;;5019357;28;21045;-65
2022/03/18 11:48:43;;;;;;;32.13;11.97;;;10.50;96.10;;;;;;5036934;28;20471;-66
2022/03/18 11:51:47;;;;;;;31.17;12.90;;;10.60;96.70;;;;;;5027350;28;20531;-64
2022/03/18 11:54:18;;;;;;;39.00;14.30;;;10.70;96.70;;;;;;5028037;28;20531;-65
2022/03/18 11:56:54;;;;;;;30.17;12.80;;;10.80;96.30;;;;;;5035271;28;20432;-66
2022/03/18 11:59:29;;;;;;;23.10;10.93;;;10.60;95.90;;;;;;5014387;28;20568;-64
2022/03/18 12:02:02;;;;;;;26.67;11.90;;;10.70;95.60;;;;;;5037226;28;20466;-67
2022/03/18 12:04:34;;;;;;;28.80;13.40;;;10.70;95.80;;;;;;5031361;28;20519;-65
2022/03/18 12:07:24;;;;;;;28.80;11.73;;;11.00;96.20;;;;;;5036675;28;20468;-66
2022/03/18 12:09:57;;;;;;;28.27;13.47;;;11.00;95.50;;;;;;5037211;28;20967;-65
2022/03/18 12:12:28;;;;;;;25.33;12.03;;;10.90;95.60;;;;;;5036869;28;20742;-66
2022/03/18 12:14:56;;;;;;;36.67;12.97;;;10.80;96.20;;;;;;5026420;28;20522;-65
2022/03/18 12:17:22;;;;;;;35.80;12.27;;;11.00;95.70;;;;;;5033341;28;20425;-65
2022/03/18 12:20:02;;;;;;;28.93;12.63;;;11.10;95.70;;;;;;5032965;28;20466;-65
2022/03/18 12:22:29;;;;;;;35.33;15.20;;;11.00;95.40;;;;;;5023375;28;20430;-65
2022/03/18 12:24:56;;;;;;;26.47;11.30;;;11.10;95.60;;;;;;5038064;28;21061;-65
2022/03/18 12:27:30;;;;;;;29.80;13.53;;;11.20;95.30;;;;;;5036291;28;21313;-66
2022/03/18 12:30:10;;;;;;;36.37;12.33;;;11.30;95.50;;;;;;5024130;28;20449;-65
2022/03/18 12:32:50;;;;;;;26.07;11.60;;;11.40;95.40;;;;;;5030089;28;20785;-66
2022/03/18 12:35:17;;;;;;;26.07;11.70;;;11.20;95.00;;;;;;5039556;28;20434;-66
2022/03/18 12:37:46;;;;;;;26.93;12.83;;;11.00;95.50;;;;;;5036190;28;20507;-66
2022/03/18 12:40:13;;;;;;;33.07;12.90;;;10.80;96.10;;;;;;5029560;28;20806;-66
2022/03/18 12:42:49;;;;;;;26.30;12.70;;;10.50;96.90;;;;;;5040840;28;20416;-66
2022/03/18 12:45:38;;;;;;;31.67;13.23;;;10.70;96.70;;;;;;5036477;28;20460;-66
2022/03/18 12:48:05;;;;;;;28.80;13.70;;;10.70;96.10;;;;;;5035634;28;20432;-66
2022/03/18 12:50:37;;;;;;;29.27;13.27;;;10.60;96.00;;;;;;5030128;28;20472;-65
2022/03/18 12:53:13;;;;;;;36.43;15.00;;;10.70;96.10;;;;;;5036296;28;20428;-66
2022/03/18 12:55:40;;;;;;;35.33;13.00;;;10.60;96.40;;;;;;5044338;28;20462;-65
2022/03/18 12:58:06;;;;;;;29.83;14.30;;;10.60;96.10;;;;;;5041818;28;20493;-64
2022/03/18 13:00:40;;;;;;;28.43;13.43;;;10.50;96.20;;;;;;5045003;28;20497;-65
2022/03/18 13:03:13;;;;;;;27.63;13.23;;;10.40;96.40;;;;;;5041000;28;21134;-65
2022/03/18 13:05:40;;;;;;;29.33;14.70;;;10.30;96.90;;;;;;5043161;28;20436;-65